Airport View

Enter AWOS ICAO identifier for current METAR.

ex. KFNL

KSBS 190655Z AUTO 08004KT 10SM CLR 04/M02 A3030 RMK AO1 T00441017

19 Apr 2019 07:13

Frequency: 118.325

Phone: 970-879-7794

Other Area AWOS: KC07 - KHDN - KCAG - K33V

TAF KEGE 190533Z 1906/2006 08006KT P6SM OVC090 FM191700 21005KT P6SM SKC FM192000 23008KT P6SM FEW250 FM200200 15006KT P6SM FEW250